createdAt,value
2022-09-13T00:01:23.750Z,25.80
2022-09-13T00:04:13.383Z,25.70
2022-09-13T00:07:01.654Z,25.60
2022-09-13T00:09:49.909Z,25.60
2022-09-13T00:12:38.127Z,25.60
2022-09-13T00:15:26.685Z,25.70
2022-09-13T00:18:15.445Z,25.80
2022-09-13T00:21:10.243Z,25.80
2022-09-13T00:24:00.434Z,25.70
2022-09-13T00:26:49.157Z,25.90
2022-09-13T00:29:38.825Z,25.70
2022-09-13T00:32:27.427Z,25.70
2022-09-13T00:35:15.673Z,25.70
2022-09-13T00:38:05.210Z,25.70
2022-09-13T00:40:53.449Z,25.80
2022-09-13T00:43:46.277Z,25.80
2022-09-13T00:46:39.045Z,25.70
2022-09-13T00:49:32.989Z,25.50
2022-09-13T00:52:26.900Z,25.90
2022-09-13T00:55:21.676Z,25.90
2022-09-13T00:58:14.252Z,26.10
2022-09-13T01:01:04.880Z,25.90
2022-09-13T01:03:53.175Z,25.90
2022-09-13T01:06:43.643Z,26.00
2022-09-13T01:09:36.257Z,26.00
2022-09-13T01:12:34.609Z,26.10
2022-09-13T01:15:23.435Z,26.00
2022-09-13T01:18:13.013Z,25.90
2022-09-13T01:21:33.187Z,25.90
2022-09-13T01:24:56.212Z,25.80
2022-09-13T01:28:08.003Z,25.30
2022-09-13T01:31:02.954Z,25.30
2022-09-13T01:34:04.165Z,25.30
2022-09-13T01:37:07.193Z,25.30
2022-09-13T01:40:05.936Z,25.00
2022-09-13T01:43:12.664Z,25.10
2022-09-13T01:46:09.073Z,25.30
2022-09-13T01:49:01.803Z,25.40
2022-09-13T01:51:55.480Z,25.50
2022-09-13T01:54:52.589Z,25.50
2022-09-13T01:57:47.869Z,25.30
2022-09-13T02:00:42.622Z,25.50
2022-09-13T02:03:40.230Z,25.50
2022-09-13T02:06:31.897Z,25.50
2022-09-13T02:09:23.033Z,25.70
2022-09-13T02:12:19.497Z,25.50
2022-09-13T02:15:13.409Z,25.50
2022-09-13T02:18:07.172Z,25.40
2022-09-13T02:21:01.968Z,25.00
2022-09-13T02:23:53.412Z,24.90
2022-09-13T02:26:46.650Z,24.40
2022-09-13T02:29:38.616Z,24.50
2022-09-13T02:32:31.309Z,24.40
2022-09-13T02:35:23.677Z,24.50
2022-09-13T02:38:18.740Z,24.60
2022-09-13T02:41:15.492Z,24.60
2022-09-13T02:44:10.353Z,24.60
2022-09-13T02:47:12.080Z,24.80
2022-09-13T02:50:11.287Z,24.90
2022-09-13T02:53:06.811Z,24.80
2022-09-13T02:56:04.758Z,24.90
2022-09-13T02:58:58.005Z,24.90
2022-09-13T03:01:50.444Z,24.70
2022-09-13T03:04:38.695Z,24.90
2022-09-13T03:07:27.569Z,24.90
2022-09-13T03:10:17.037Z,24.80
2022-09-13T03:13:23.434Z,24.60
2022-09-13T03:16:26.478Z,24.30
2022-09-13T03:19:31.020Z,24.60
2022-09-13T03:22:37.543Z,24.70
2022-09-13T03:25:34.172Z,24.80
2022-09-13T03:28:34.376Z,24.70
2022-09-13T03:31:31.275Z,24.40
2022-09-13T03:34:31.139Z,24.50
2022-09-13T03:37:26.589Z,24.40
2022-09-13T03:40:19.168Z,24.10
2022-09-13T03:43:13.453Z,24.00
2022-09-13T03:46:06.191Z,24.10
2022-09-13T03:48:55.690Z,24.30
2022-09-13T03:51:45.797Z,24.40
2022-09-13T03:54:38.299Z,24.60
2022-09-13T03:57:27.094Z,24.70
2022-09-13T04:00:18.113Z,24.70
2022-09-13T04:03:08.940Z,24.50
2022-09-13T04:05:57.170Z,24.40
2022-09-13T04:08:45.676Z,24.20
2022-09-13T04:11:33.972Z,24.20
2022-09-13T04:14:26.384Z,23.80
2022-09-13T04:17:15.491Z,23.80
2022-09-13T04:20:06.703Z,24.00
2022-09-13T04:22:57.501Z,24.00
2022-09-13T04:25:46.212Z,24.10
2022-09-13T04:28:34.489Z,24.30
2022-09-13T04:31:22.780Z,24.50
2022-09-13T04:34:11.046Z,24.60
2022-09-13T04:37:00.632Z,24.80
2022-09-13T04:39:49.296Z,24.90
2022-09-13T04:42:38.420Z,24.90
2022-09-13T04:45:27.128Z,24.80
2022-09-13T04:48:16.347Z,24.90
2022-09-13T04:51:06.228Z,25.00
2022-09-13T04:53:58.244Z,25.10
2022-09-13T04:56:49.474Z,25.00
2022-09-13T04:59:38.793Z,25.00
2022-09-13T05:02:30.195Z,24.90
2022-09-13T05:05:19.934Z,25.10
2022-09-13T05:08:09.527Z,25.10
2022-09-13T05:10:59.235Z,25.50
2022-09-13T05:13:52.852Z,25.70
2022-09-13T05:16:41.562Z,25.90
2022-09-13T05:19:29.804Z,26.20
2022-09-13T05:22:18.133Z,26.50
2022-09-13T05:25:07.698Z,26.70
2022-09-13T05:27:57.271Z,26.90
2022-09-13T05:30:45.765Z,27.00
2022-09-13T05:33:36.416Z,26.50
2022-09-13T05:36:26.487Z,26.20
2022-09-13T05:39:33.563Z,25.90
2022-09-13T05:42:26.737Z,25.90
2022-09-13T05:45:16.518Z,26.40
2022-09-13T05:48:05.535Z,26.30
2022-09-13T05:50:58.541Z,26.30
2022-09-13T05:53:50.404Z,26.80
2022-09-13T05:56:38.755Z,26.90
2022-09-13T05:59:27.048Z,26.70
2022-09-13T06:02:16.697Z,26.90
2022-09-13T06:05:06.301Z,26.50
2022-09-13T06:07:55.098Z,26.60
2022-09-13T06:10:44.147Z,26.20
2022-09-13T06:13:33.510Z,26.50
2022-09-13T06:16:22.222Z,26.80
2022-09-13T06:19:12.353Z,26.40
2022-09-13T06:22:01.372Z,26.60
2022-09-13T06:24:49.645Z,26.60
2022-09-13T06:27:38.755Z,26.70
2022-09-13T06:30:28.833Z,27.00
2022-09-13T06:33:18.273Z,26.90
2022-09-13T06:36:10.222Z,26.90
2022-09-13T06:39:00.614Z,27.10
2022-09-13T06:41:50.142Z,27.00
2022-09-13T06:44:45.853Z,26.90
2022-09-13T06:47:34.267Z,26.70
2022-09-13T06:50:22.987Z,26.80
2022-09-13T06:53:13.429Z,26.90
2022-09-13T06:56:04.112Z,27.20
2022-09-13T06:58:56.854Z,26.90
2022-09-13T07:01:46.737Z,26.70
2022-09-13T07:04:35.105Z,26.50
2022-09-13T07:07:23.494Z,26.60
2022-09-13T07:10:13.522Z,26.60
2022-09-13T07:13:03.334Z,26.80
2022-09-13T07:15:51.730Z,26.60
2022-09-13T07:18:40.049Z,26.90
2022-09-13T07:21:29.177Z,26.90
2022-09-13T07:24:18.029Z,26.70
2022-09-13T07:27:08.708Z,26.60
2022-09-13T07:29:57.812Z,26.70
2022-09-13T07:32:46.057Z,27.00
2022-09-13T07:35:35.194Z,27.40
2022-09-13T07:38:24.039Z,27.50
2022-09-13T07:41:14.489Z,27.50
2022-09-13T07:44:06.414Z,27.40
2022-09-13T07:46:55.166Z,27.40
2022-09-13T07:49:44.275Z,27.30
2022-09-13T07:52:36.398Z,27.60
2022-09-13T07:55:30.816Z,27.80
2022-09-13T07:58:20.050Z,27.90
2022-09-13T08:01:13.056Z,28.00
2022-09-13T08:04:03.522Z,27.90
2022-09-13T08:06:51.973Z,27.60
2022-09-13T08:09:40.603Z,27.60
2022-09-13T08:12:28.928Z,27.20
2022-09-13T08:15:18.707Z,27.30
2022-09-13T08:18:08.867Z,27.40
2022-09-13T08:20:59.024Z,27.80
2022-09-13T08:23:47.257Z,27.90
2022-09-13T08:26:37.498Z,27.80
2022-09-13T08:29:28.500Z,28.10
2022-09-13T08:32:17.433Z,28.30
2022-09-13T08:35:09.917Z,28.30
2022-09-13T08:37:58.405Z,28.70
2022-09-13T08:40:51.113Z,28.40
2022-09-13T08:43:50.056Z,28.10
2022-09-13T08:46:41.261Z,28.40
2022-09-13T08:49:35.827Z,28.20
2022-09-13T08:52:32.358Z,28.50
2022-09-13T08:55:27.761Z,28.60
2022-09-13T08:58:34.181Z,28.80
2022-09-13T09:01:36.187Z,28.80
2022-09-13T09:04:38.967Z,29.00
2022-09-13T09:07:33.698Z,29.40
2022-09-13T09:10:25.252Z,29.60
2022-09-13T09:13:24.264Z,29.10
2022-09-13T09:16:26.385Z,28.90
2022-09-13T09:19:21.213Z,29.10
2022-09-13T09:22:17.766Z,29.20
2022-09-13T09:25:11.836Z,29.70
2022-09-13T09:28:00.940Z,29.90
2022-09-13T09:31:04.136Z,29.80
2022-09-13T09:34:05.154Z,29.70
2022-09-13T09:37:01.445Z,30.10
2022-09-13T09:39:51.167Z,30.40
2022-09-13T09:42:43.910Z,30.40
2022-09-13T09:45:35.323Z,30.20
2022-09-13T09:48:29.112Z,30.40
2022-09-13T09:51:20.344Z,30.20
2022-09-13T09:54:09.588Z,30.30
2022-09-13T09:56:57.880Z,30.30
2022-09-13T09:59:48.459Z,30.00
2022-09-13T10:02:43.626Z,30.10
2022-09-13T10:05:33.295Z,30.00
2022-09-13T10:08:30.477Z,29.70
2022-09-13T10:11:22.203Z,29.80
2022-09-13T10:14:30.480Z,29.80
2022-09-13T10:17:25.011Z,29.80
2022-09-13T10:20:27.556Z,29.90
2022-09-13T10:23:22.011Z,30.00
2022-09-13T10:26:13.269Z,30.00
2022-09-13T10:29:15.209Z,30.00
2022-09-13T10:32:12.998Z,30.30
2022-09-13T10:35:08.824Z,30.50
2022-09-13T10:37:57.281Z,30.70
2022-09-13T10:40:49.247Z,30.90
2022-09-13T10:43:39.164Z,31.00
2022-09-13T10:46:31.834Z,31.10
2022-09-13T10:49:41.433Z,31.10
2022-09-13T10:52:35.158Z,31.40
2022-09-13T10:55:55.040Z,31.40
2022-09-13T10:58:43.433Z,31.30
2022-09-13T11:01:45.546Z,31.60
2022-09-13T11:05:06.847Z,31.20
2022-09-13T11:08:12.778Z,31.20
2022-09-13T11:11:10.699Z,31.20
2022-09-13T11:14:13.983Z,31.40
2022-09-13T11:17:16.570Z,30.70
2022-09-13T11:20:18.344Z,31.10
2022-09-13T11:23:29.821Z,30.80
2022-09-13T11:26:34.995Z,31.20
2022-09-13T11:29:47.511Z,31.00
2022-09-13T11:32:52.868Z,30.60
2022-09-13T11:35:55.404Z,30.40
2022-09-13T11:38:59.474Z,30.00
2022-09-13T11:41:59.351Z,30.20
2022-09-13T11:45:14.697Z,30.60
2022-09-13T11:48:33.893Z,31.00
2022-09-13T11:51:29.937Z,30.70
2022-09-13T11:54:32.298Z,30.80
2022-09-13T11:57:26.544Z,30.70
2022-09-13T12:00:25.987Z,30.60
2022-09-13T12:03:23.191Z,30.90
2022-09-13T12:06:17.220Z,31.20
2022-09-13T12:09:12.448Z,31.40
2022-09-13T12:12:06.777Z,31.30
2022-09-13T12:15:04.015Z,31.40
2022-09-13T12:17:57.276Z,31.50
2022-09-13T12:20:51.446Z,31.90
2022-09-13T12:23:44.535Z,31.70
2022-09-13T12:26:39.905Z,31.50
2022-09-13T12:29:37.865Z,31.50
2022-09-13T12:32:29.305Z,31.70
2022-09-13T12:35:25.474Z,31.50
2022-09-13T12:38:31.433Z,31.40
2022-09-13T12:41:32.567Z,31.20
2022-09-13T12:44:57.352Z,31.10
2022-09-13T12:48:07.879Z,31.50
2022-09-13T12:51:08.811Z,31.40
2022-09-13T12:54:19.171Z,31.60
2022-09-13T12:57:28.137Z,31.80
2022-09-13T13:00:28.394Z,32.10
2022-09-13T13:03:19.438Z,31.80
2022-09-13T13:05:51.536Z,31.50
2022-09-13T13:08:29.322Z,31.50
2022-09-13T13:11:07.859Z,31.50
2022-09-13T13:13:38.878Z,31.40
2022-09-13T13:16:25.940Z,31.50
2022-09-13T13:18:55.017Z,31.70
2022-09-13T13:21:34.929Z,31.90
2022-09-13T13:24:40.508Z,31.90
2022-09-13T13:27:37.861Z,32.10
2022-09-13T13:30:43.289Z,31.90
2022-09-13T13:33:22.897Z,32.10
2022-09-13T13:35:51.124Z,32.20
2022-09-13T13:38:48.528Z,32.10
2022-09-13T13:41:45.640Z,32.00
2022-09-13T13:44:51.149Z,32.10
2022-09-13T13:48:03.605Z,32.00
2022-09-13T13:50:36.237Z,32.10
2022-09-13T13:53:23.499Z,32.40
2022-09-13T13:56:23.885Z,32.40
2022-09-13T13:58:56.617Z,32.10
2022-09-13T14:01:30.901Z,31.50
2022-09-13T14:04:31.514Z,31.10
2022-09-13T14:07:19.532Z,30.90
2022-09-13T14:09:54.855Z,30.80
2022-09-13T14:12:34.192Z,31.10
2022-09-13T14:15:31.433Z,31.30
2022-09-13T14:18:35.072Z,31.50
2022-09-13T14:21:19.194Z,31.50
2022-09-13T14:23:50.385Z,31.80
2022-09-13T14:26:22.287Z,31.20
2022-09-13T14:28:51.349Z,30.80
2022-09-13T14:31:23.040Z,30.60
2022-09-13T14:33:53.087Z,30.70
2022-09-13T14:36:22.901Z,30.80
2022-09-13T14:38:55.679Z,30.90
2022-09-13T14:41:32.455Z,31.30
2022-09-13T14:44:23.800Z,31.20
2022-09-13T14:47:05.012Z,31.50
2022-09-13T14:49:37.132Z,31.70
2022-09-13T14:52:12.664Z,31.90
2022-09-13T14:54:48.494Z,32.00
2022-09-13T14:57:24.614Z,31.90
2022-09-13T14:59:57.087Z,31.90
2022-09-13T15:02:27.585Z,32.10
2022-09-13T15:04:58.375Z,31.90
2022-09-13T15:07:32.256Z,31.90
2022-09-13T15:10:17.968Z,32.00
2022-09-13T15:12:54.952Z,31.90
2022-09-13T15:15:39.269Z,31.90
2022-09-13T15:18:25.967Z,31.90
2022-09-13T15:20:58.107Z,32.00
2022-09-13T15:23:29.030Z,32.20
2022-09-13T15:26:02.643Z,32.30
2022-09-13T15:28:33.791Z,32.40
2022-09-13T15:31:03.357Z,32.40
2022-09-13T15:33:35.382Z,32.50
2022-09-13T15:36:30.293Z,32.50
2022-09-13T15:39:03.574Z,32.50
2022-09-13T15:41:35.407Z,32.40
2022-09-13T15:44:07.107Z,32.50
2022-09-13T15:46:45.403Z,32.60
2022-09-13T15:49:17.800Z,32.60
2022-09-13T15:51:46.367Z,32.50
2022-09-13T15:54:16.643Z,32.30
2022-09-13T15:56:48.447Z,32.00
2022-09-13T15:59:22.338Z,31.80
2022-09-13T16:01:52.290Z,31.40
2022-09-13T16:04:20.919Z,31.70
2022-09-13T16:06:48.898Z,31.70
2022-09-13T16:09:20.039Z,31.90
2022-09-13T16:11:50.913Z,31.70
2022-09-13T16:14:19.645Z,31.70
2022-09-13T16:16:49.024Z,31.30
2022-09-13T16:19:20.004Z,31.60
2022-09-13T16:21:47.993Z,31.70
2022-09-13T16:24:16.234Z,31.80
2022-09-13T16:26:44.852Z,31.80
2022-09-13T16:29:14.527Z,31.80
2022-09-13T16:31:42.479Z,31.80
2022-09-13T16:34:13.695Z,31.90
2022-09-13T16:36:43.583Z,32.00
2022-09-13T16:39:16.513Z,32.00
2022-09-13T16:41:44.596Z,31.80
2022-09-13T16:44:14.417Z,31.90
2022-09-13T16:46:43.042Z,32.00
2022-09-13T16:49:11.481Z,32.00
2022-09-13T16:51:41.760Z,32.00
2022-09-13T16:54:09.746Z,31.80
2022-09-13T16:56:38.072Z,31.80
2022-09-13T16:59:05.952Z,31.70
2022-09-13T17:01:35.628Z,31.70
2022-09-13T17:04:04.480Z,31.70
2022-09-13T17:06:35.233Z,31.70
2022-09-13T17:09:06.404Z,31.70
2022-09-13T17:11:40.014Z,31.70
2022-09-13T17:14:11.017Z,31.40
2022-09-13T17:16:49.139Z,31.00
2022-09-13T17:19:19.654Z,31.10
2022-09-13T17:21:59.573Z,30.80
2022-09-13T17:24:31.659Z,30.80
2022-09-13T17:27:00.227Z,30.50
2022-09-13T17:29:30.871Z,30.60
2022-09-13T17:32:02.132Z,30.60
2022-09-13T17:34:34.683Z,30.60
2022-09-13T17:37:06.509Z,30.80
2022-09-13T17:39:34.471Z,30.90
2022-09-13T17:42:02.535Z,30.90
2022-09-13T17:44:31.303Z,30.90
2022-09-13T17:47:03.094Z,30.90
2022-09-13T17:49:33.356Z,30.80
2022-09-13T17:52:05.767Z,30.90
2022-09-13T17:54:34.998Z,31.00
2022-09-13T17:57:03.723Z,30.80
2022-09-13T17:59:34.489Z,30.90
2022-09-13T18:02:03.955Z,30.90
2022-09-13T18:04:34.364Z,30.80
2022-09-13T18:07:04.906Z,30.90
2022-09-13T18:09:38.199Z,30.50
2022-09-13T18:12:06.582Z,30.60
2022-09-13T18:14:35.522Z,30.60
2022-09-13T18:17:12.892Z,30.30
2022-09-13T18:19:46.389Z,30.50
2022-09-13T18:22:15.369Z,30.70
2022-09-13T18:24:48.849Z,30.60
2022-09-13T18:27:19.817Z,30.70
2022-09-13T18:29:48.216Z,30.70
2022-09-13T18:32:18.943Z,30.40
2022-09-13T18:34:49.651Z,30.20
2022-09-13T18:37:19.744Z,30.10
2022-09-13T18:39:47.788Z,30.20
2022-09-13T18:42:16.170Z,30.30
2022-09-13T18:44:44.729Z,30.50
2022-09-13T18:47:14.706Z,30.50
2022-09-13T18:49:44.563Z,30.50
2022-09-13T18:52:12.794Z,30.20
2022-09-13T18:54:40.738Z,30.40
2022-09-13T18:57:10.212Z,30.10
2022-09-13T18:59:40.315Z,29.60
2022-09-13T19:02:09.649Z,29.40
2022-09-13T19:04:38.487Z,29.70
2022-09-13T19:07:09.621Z,29.90
2022-09-13T19:09:39.453Z,29.60
2022-09-13T19:12:10.238Z,29.70
2022-09-13T19:14:38.279Z,29.50
2022-09-13T19:17:07.623Z,29.60
2022-09-13T19:19:36.617Z,29.90
2022-09-13T19:22:05.569Z,30.10
2022-09-13T19:24:37.152Z,30.10
2022-09-13T19:27:08.114Z,30.10
2022-09-13T19:29:37.056Z,29.80
2022-09-13T19:32:09.062Z,29.50
2022-09-13T19:34:47.421Z,29.40
2022-09-13T19:37:16.381Z,29.40
2022-09-13T19:39:47.395Z,29.60
2022-09-13T19:42:22.429Z,29.40
2022-09-13T19:44:54.727Z,29.40
2022-09-13T19:50:12.496Z,29.20
2022-09-13T19:52:41.708Z,28.80
2022-09-13T19:55:13.644Z,29.20
2022-09-13T19:57:44.944Z,29.30
2022-09-13T20:00:15.560Z,29.50
2022-09-13T20:02:43.822Z,29.50
2022-09-13T20:05:15.583Z,29.20
2022-09-13T20:07:45.899Z,29.30
2022-09-13T20:10:16.149Z,29.40
2022-09-13T20:12:45.323Z,29.50
2022-09-13T20:15:17.213Z,29.70
2022-09-13T20:17:45.607Z,29.80
2022-09-13T20:20:14.107Z,29.90
2022-09-13T20:22:42.046Z,29.80
2022-09-13T20:25:11.996Z,29.90
2022-09-13T20:27:42.863Z,29.80
2022-09-13T20:30:14.027Z,29.40
2022-09-13T20:32:42.019Z,29.50
2022-09-13T20:35:11.731Z,29.50
2022-09-13T20:37:41.418Z,29.50
2022-09-13T20:40:10.725Z,29.10
2022-09-13T20:42:39.655Z,29.20
2022-09-13T20:45:12.907Z,29.20
2022-09-13T20:47:40.835Z,29.10
2022-09-13T20:50:09.280Z,28.90
2022-09-13T20:52:37.219Z,28.80
2022-09-13T20:55:05.730Z,28.20
2022-09-13T20:57:34.082Z,28.40
2022-09-13T21:00:03.300Z,28.40
2022-09-13T21:02:32.726Z,28.00
2022-09-13T21:05:00.711Z,28.40
2022-09-13T21:08:00.839Z,28.40
2022-09-13T21:10:28.933Z,28.60
2022-09-13T21:12:57.020Z,28.60
2022-09-13T21:15:24.969Z,28.40
2022-09-13T21:17:54.498Z,28.40
2022-09-13T21:20:22.499Z,28.60
2022-09-13T21:22:50.439Z,28.60
2022-09-13T21:25:19.654Z,28.40
2022-09-13T21:27:47.559Z,28.70
2022-09-13T21:30:16.618Z,28.70
2022-09-13T21:32:44.537Z,28.90
2022-09-13T21:35:13.961Z,29.10
2022-09-13T21:37:42.962Z,29.30
2022-09-13T21:40:11.601Z,29.40
2022-09-13T21:42:39.549Z,29.30
2022-09-13T21:45:14.122Z,29.50
2022-09-13T21:47:42.022Z,29.40
2022-09-13T21:50:10.652Z,29.50
2022-09-13T21:52:40.551Z,29.60
2022-09-13T21:55:09.610Z,29.70
2022-09-13T21:57:37.524Z,29.70
2022-09-13T22:00:09.554Z,29.80
2022-09-13T22:02:41.165Z,29.80
2022-09-13T22:05:09.762Z,29.80
2022-09-13T22:07:37.689Z,29.90
2022-09-13T22:10:07.702Z,29.90
2022-09-13T22:12:35.977Z,29.90
2022-09-13T22:15:04.819Z,30.00
2022-09-13T22:17:33.914Z,30.00
2022-09-13T22:20:01.966Z,30.00
2022-09-13T22:22:30.320Z,29.80
2022-09-13T22:24:58.937Z,29.80
2022-09-13T22:27:28.336Z,29.70
2022-09-13T22:29:56.353Z,29.60
2022-09-13T22:32:26.573Z,29.60
2022-09-13T22:34:58.430Z,29.60
2022-09-13T22:37:26.364Z,29.60
2022-09-13T22:39:54.354Z,29.50
2022-09-13T22:42:22.343Z,29.50
2022-09-13T22:44:51.617Z,29.50
2022-09-13T22:47:20.346Z,29.50
2022-09-13T22:49:48.280Z,29.50
2022-09-13T22:52:16.206Z,29.40
2022-09-13T22:54:46.072Z,29.40
2022-09-13T22:57:14.304Z,29.30
2022-09-13T22:59:43.227Z,29.20
2022-09-13T23:02:12.769Z,29.30
2022-09-13T23:04:41.902Z,29.20
2022-09-13T23:07:10.185Z,29.30
2022-09-13T23:09:38.101Z,29.00
2022-09-13T23:12:06.332Z,29.00
2022-09-13T23:14:34.317Z,28.60
2022-09-13T23:17:02.504Z,28.80
2022-09-13T23:19:31.948Z,28.50
2022-09-13T23:21:59.862Z,28.70
2022-09-13T23:24:31.360Z,28.60
2022-09-13T23:27:01.539Z,28.70
2022-09-13T23:29:29.483Z,28.60
2022-09-13T23:31:57.482Z,28.70
2022-09-13T23:34:25.525Z,28.70
2022-09-13T23:36:54.984Z,28.80
2022-09-13T23:39:22.984Z,28.80
2022-09-13T23:41:52.093Z,28.70
2022-09-13T23:44:20.958Z,28.80
2022-09-13T23:46:49.247Z,28.80
2022-09-13T23:49:17.225Z,28.90
2022-09-13T23:51:45.184Z,28.80
2022-09-13T23:54:15.731Z,28.90
2022-09-13T23:56:44.723Z,28.90
2022-09-13T23:59:13.778Z,28.60
